sensor_id;sensor_type;location;lat;lon;timestamp;P1;durP1;ratioP1;P2;durP2;ratioP2
19867;SDS011;10096;51.112;6.776;2022-12-29T00:01:30;1.73;;;1.30;;
19867;SDS011;10096;51.112;6.776;2022-12-29T00:03:57;2.20;;;1.05;;
19867;SDS011;10096;51.112;6.776;2022-12-29T00:06:24;1.15;;;0.98;;
19867;SDS011;10096;51.112;6.776;2022-12-29T00:08:51;0.90;;;0.90;;
19867;SDS011;10096;51.112;6.776;2022-12-29T00:11:19;1.15;;;1.05;;
19867;SDS011;10096;51.112;6.776;2022-12-29T00:13:47;1.00;;;1.00;;
19867;SDS011;10096;51.112;6.776;2022-12-29T00:16:33;1.85;;;1.13;;
19867;SDS011;10096;51.112;6.776;2022-12-29T00:19:01;1.20;;;1.10;;
19867;SDS011;10096;51.112;6.776;2022-12-29T00:21:28;1.00;;;1.00;;
19867;SDS011;10096;51.112;6.776;2022-12-29T00:24:14;0.90;;;0.90;;
19867;SDS011;10096;51.112;6.776;2022-12-29T00:27:08;0.90;;;0.90;;
19867;SDS011;10096;51.112;6.776;2022-12-29T00:29:54;0.93;;;0.93;;
19867;SDS011;10096;51.112;6.776;2022-12-29T00:32:40;0.82;;;0.82;;
19867;SDS011;10096;51.112;6.776;2022-12-29T00:35:26;1.42;;;1.00;;
19867;SDS011;10096;51.112;6.776;2022-12-29T00:37:55;0.88;;;0.88;;
19867;SDS011;10096;51.112;6.776;2022-12-29T00:40:42;0.90;;;0.90;;
19867;SDS011;10096;51.112;6.776;2022-12-29T00:43:27;0.93;;;0.93;;
19867;SDS011;10096;51.112;6.776;2022-12-29T00:46:12;0.70;;;0.70;;
19867;SDS011;10096;51.112;6.776;2022-12-29T00:48:40;0.80;;;0.80;;
19867;SDS011;10096;51.112;6.776;2022-12-29T00:51:24;0.70;;;0.70;;
19867;SDS011;10096;51.112;6.776;2022-12-29T00:53:51;1.00;;;1.00;;
19867;SDS011;10096;51.112;6.776;2022-12-29T00:56:18;1.00;;;1.00;;
19867;SDS011;10096;51.112;6.776;2022-12-29T00:58:45;1.10;;;1.10;;
19867;SDS011;10096;51.112;6.776;2022-12-29T01:01:12;1.00;;;1.00;;
19867;SDS011;10096;51.112;6.776;2022-12-29T01:03:40;2.45;;;1.02;;
19867;SDS011;10096;51.112;6.776;2022-12-29T01:06:08;1.23;;;1.10;;
19867;SDS011;10096;51.112;6.776;2022-12-29T01:08:36;0.80;;;0.80;;
19867;SDS011;10096;51.112;6.776;2022-12-29T01:11:04;0.68;;;0.68;;
19867;SDS011;10096;51.112;6.776;2022-12-29T01:13:32;1.00;;;1.00;;
19867;SDS011;10096;51.112;6.776;2022-12-29T01:15:59;1.27;;;1.00;;
19867;SDS011;10096;51.112;6.776;2022-12-29T01:18:26;1.95;;;0.82;;
19867;SDS011;10096;51.112;6.776;2022-12-29T01:20:59;1.23;;;1.15;;
19867;SDS011;10096;51.112;6.776;2022-12-29T01:23:26;1.23;;;0.90;;
19867;SDS011;10096;51.112;6.776;2022-12-29T01:25:54;1.02;;;1.00;;
19867;SDS011;10096;51.112;6.776;2022-12-29T01:28:22;1.20;;;1.10;;
19867;SDS011;10096;51.112;6.776;2022-12-29T01:30:49;1.23;;;1.00;;
19867;SDS011;10096;51.112;6.776;2022-12-29T01:33:16;1.08;;;1.02;;
19867;SDS011;10096;51.112;6.776;2022-12-29T01:35:42;0.98;;;0.90;;
19867;SDS011;10096;51.112;6.776;2022-12-29T01:38:11;1.10;;;1.00;;
19867;SDS011;10096;51.112;6.776;2022-12-29T01:40:42;1.00;;;1.00;;
19867;SDS011;10096;51.112;6.776;2022-12-29T01:43:10;1.70;;;0.90;;
19867;SDS011;10096;51.112;6.776;2022-12-29T01:45:39;0.70;;;0.70;;
19867;SDS011;10096;51.112;6.776;2022-12-29T01:48:10;0.88;;;0.80;;
19867;SDS011;10096;51.112;6.776;2022-12-29T01:50:39;0.73;;;0.70;;
19867;SDS011;10096;51.112;6.776;2022-12-29T01:53:13;4.35;;;1.00;;
19867;SDS011;10096;51.112;6.776;2022-12-29T01:55:46;1.35;;;0.85;;
19867;SDS011;10096;51.112;6.776;2022-12-29T01:58:15;0.82;;;0.82;;
19867;SDS011;10096;51.112;6.776;2022-12-29T02:00:45;1.02;;;0.80;;
19867;SDS011;10096;51.112;6.776;2022-12-29T02:03:12;1.02;;;0.93;;
19867;SDS011;10096;51.112;6.776;2022-12-29T02:05:42;1.10;;;1.00;;
19867;SDS011;10096;51.112;6.776;2022-12-29T02:08:14;1.48;;;1.13;;
19867;SDS011;10096;51.112;6.776;2022-12-29T02:10:41;1.00;;;1.00;;
19867;SDS011;10096;51.112;6.776;2022-12-29T02:13:09;1.48;;;1.10;;
19867;SDS011;10096;51.112;6.776;2022-12-29T02:15:40;0.98;;;0.82;;
19867;SDS011;10096;51.112;6.776;2022-12-29T02:18:20;1.77;;;1.10;;
19867;SDS011;10096;51.112;6.776;2022-12-29T02:21:05;1.30;;;1.20;;
19867;SDS011;10096;51.112;6.776;2022-12-29T02:26:57;2.03;;;1.25;;
19867;SDS011;10096;51.112;6.776;2022-12-29T02:29:44;1.30;;;1.10;;
19867;SDS011;10096;51.112;6.776;2022-12-29T02:32:30;1.20;;;1.15;;
19867;SDS011;10096;51.112;6.776;2022-12-29T02:35:06;0.90;;;0.90;;
19867;SDS011;10096;51.112;6.776;2022-12-29T02:37:41;1.13;;;1.02;;
19867;SDS011;10096;51.112;6.776;2022-12-29T02:40:17;2.03;;;1.25;;
19867;SDS011;10096;51.112;6.776;2022-12-29T02:42:51;2.65;;;1.33;;
19867;SDS011;10096;51.112;6.776;2022-12-29T02:45:26;3.28;;;1.42;;
19867;SDS011;10096;51.112;6.776;2022-12-29T02:48:00;1.27;;;1.08;;
19867;SDS011;10096;51.112;6.776;2022-12-29T02:50:35;1.48;;;1.05;;
19867;SDS011;10096;51.112;6.776;2022-12-29T02:53:05;1.95;;;1.20;;
19867;SDS011;10096;51.112;6.776;2022-12-29T02:55:35;2.58;;;1.13;;
19867;SDS011;10096;51.112;6.776;2022-12-29T02:58:09;1.85;;;1.25;;
19867;SDS011;10096;51.112;6.776;2022-12-29T03:00:45;1.77;;;1.00;;
19867;SDS011;10096;51.112;6.776;2022-12-29T03:03:22;1.63;;;1.20;;
19867;SDS011;10096;51.112;6.776;2022-12-29T03:06:09;5.22;;;1.60;;
19867;SDS011;10096;51.112;6.776;2022-12-29T03:08:49;1.23;;;1.13;;
19867;SDS011;10096;51.112;6.776;2022-12-29T03:11:21;2.28;;;1.33;;
19867;SDS011;10096;51.112;6.776;2022-12-29T03:14:09;1.15;;;1.00;;
19867;SDS011;10096;51.112;6.776;2022-12-29T03:17:02;1.40;;;0.90;;
19867;SDS011;10096;51.112;6.776;2022-12-29T03:19:37;1.00;;;0.90;;
19867;SDS011;10096;51.112;6.776;2022-12-29T03:22:10;0.98;;;0.90;;
19867;SDS011;10096;51.112;6.776;2022-12-29T03:24:56;1.00;;;0.95;;
19867;SDS011;10096;51.112;6.776;2022-12-29T03:27:27;1.92;;;1.50;;
19867;SDS011;10096;51.112;6.776;2022-12-29T03:29:57;1.92;;;1.10;;
19867;SDS011;10096;51.112;6.776;2022-12-29T03:32:28;1.52;;;1.30;;
19867;SDS011;10096;51.112;6.776;2022-12-29T03:35:00;2.03;;;1.10;;
19867;SDS011;10096;51.112;6.776;2022-12-29T03:37:29;1.20;;;1.10;;
19867;SDS011;10096;51.112;6.776;2022-12-29T03:40:00;1.83;;;0.80;;
19867;SDS011;10096;51.112;6.776;2022-12-29T03:42:28;1.15;;;1.05;;
19867;SDS011;10096;51.112;6.776;2022-12-29T03:44:58;1.40;;;1.20;;
19867;SDS011;10096;51.112;6.776;2022-12-29T03:47:25;1.20;;;1.10;;
19867;SDS011;10096;51.112;6.776;2022-12-29T03:49:52;2.15;;;1.00;;
19867;SDS011;10096;51.112;6.776;2022-12-29T03:52:22;1.08;;;1.00;;
19867;SDS011;10096;51.112;6.776;2022-12-29T03:54:49;1.42;;;1.20;;
19867;SDS011;10096;51.112;6.776;2022-12-29T03:57:16;2.05;;;1.17;;
19867;SDS011;10096;51.112;6.776;2022-12-29T03:59:42;2.65;;;1.27;;
19867;SDS011;10096;51.112;6.776;2022-12-29T04:02:10;1.13;;;1.10;;
19867;SDS011;10096;51.112;6.776;2022-12-29T04:04:36;1.15;;;0.90;;
19867;SDS011;10096;51.112;6.776;2022-12-29T04:07:03;0.70;;;0.70;;
19867;SDS011;10096;51.112;6.776;2022-12-29T04:09:32;2.60;;;2.35;;
19867;SDS011;10096;51.112;6.776;2022-12-29T04:11:59;1.00;;;0.90;;
19867;SDS011;10096;51.112;6.776;2022-12-29T04:14:26;2.35;;;1.10;;
19867;SDS011;10096;51.112;6.776;2022-12-29T04:16:53;1.00;;;1.00;;
19867;SDS011;10096;51.112;6.776;2022-12-29T04:19:20;1.13;;;1.02;;
19867;SDS011;10096;51.112;6.776;2022-12-29T04:21:47;1.13;;;1.08;;
19867;SDS011;10096;51.112;6.776;2022-12-29T04:24:14;1.33;;;1.20;;
19867;SDS011;10096;51.112;6.776;2022-12-29T04:26:42;2.35;;;1.25;;
19867;SDS011;10096;51.112;6.776;2022-12-29T04:29:09;1.23;;;1.08;;
19867;SDS011;10096;51.112;6.776;2022-12-29T04:31:36;1.77;;;1.25;;
19867;SDS011;10096;51.112;6.776;2022-12-29T04:34:03;1.58;;;1.13;;
19867;SDS011;10096;51.112;6.776;2022-12-29T04:36:29;1.40;;;1.10;;
19867;SDS011;10096;51.112;6.776;2022-12-29T04:38:56;1.15;;;1.05;;
19867;SDS011;10096;51.112;6.776;2022-12-29T04:41:23;1.10;;;1.00;;
19867;SDS011;10096;51.112;6.776;2022-12-29T04:43:52;1.40;;;1.30;;
19867;SDS011;10096;51.112;6.776;2022-12-29T04:46:19;1.20;;;1.10;;
19867;SDS011;10096;51.112;6.776;2022-12-29T04:48:46;1.30;;;1.20;;
19867;SDS011;10096;51.112;6.776;2022-12-29T04:51:12;0.80;;;0.80;;
19867;SDS011;10096;51.112;6.776;2022-12-29T04:53:42;1.27;;;1.15;;
19867;SDS011;10096;51.112;6.776;2022-12-29T04:56:09;1.67;;;1.10;;
19867;SDS011;10096;51.112;6.776;2022-12-29T04:58:35;2.35;;;1.10;;
19867;SDS011;10096;51.112;6.776;2022-12-29T05:01:04;1.50;;;1.00;;
19867;SDS011;10096;51.112;6.776;2022-12-29T05:03:31;1.50;;;1.10;;
19867;SDS011;10096;51.112;6.776;2022-12-29T05:05:57;1.40;;;1.27;;
19867;SDS011;10096;51.112;6.776;2022-12-29T05:08:24;1.40;;;1.00;;
19867;SDS011;10096;51.112;6.776;2022-12-29T05:10:51;2.92;;;1.20;;
19867;SDS011;10096;51.112;6.776;2022-12-29T05:13:18;1.55;;;1.30;;
19867;SDS011;10096;51.112;6.776;2022-12-29T05:15:46;1.80;;;1.30;;
19867;SDS011;10096;51.112;6.776;2022-12-29T05:18:17;1.30;;;1.15;;
19867;SDS011;10096;51.112;6.776;2022-12-29T05:20:44;1.52;;;1.17;;
19867;SDS011;10096;51.112;6.776;2022-12-29T05:23:11;1.63;;;1.30;;
19867;SDS011;10096;51.112;6.776;2022-12-29T05:25:38;2.72;;;1.30;;
19867;SDS011;10096;51.112;6.776;2022-12-29T05:28:05;1.80;;;1.20;;
19867;SDS011;10096;51.112;6.776;2022-12-29T05:30:33;2.05;;;1.00;;
19867;SDS011;10096;51.112;6.776;2022-12-29T05:33:00;1.58;;;1.00;;
19867;SDS011;10096;51.112;6.776;2022-12-29T05:35:29;4.05;;;1.83;;
19867;SDS011;10096;51.112;6.776;2022-12-29T05:37:55;1.30;;;1.15;;
19867;SDS011;10096;51.112;6.776;2022-12-29T05:40:22;1.15;;;1.05;;
19867;SDS011;10096;51.112;6.776;2022-12-29T05:42:49;1.48;;;1.15;;
19867;SDS011;10096;51.112;6.776;2022-12-29T05:45:16;2.75;;;1.20;;
19867;SDS011;10096;51.112;6.776;2022-12-29T05:47:43;1.60;;;1.40;;
19867;SDS011;10096;51.112;6.776;2022-12-29T05:50:10;1.63;;;1.15;;
19867;SDS011;10096;51.112;6.776;2022-12-29T05:52:39;3.13;;;1.40;;
19867;SDS011;10096;51.112;6.776;2022-12-29T05:55:06;3.00;;;1.48;;
19867;SDS011;10096;51.112;6.776;2022-12-29T05:57:33;1.50;;;1.00;;
19867;SDS011;10096;51.112;6.776;2022-12-29T06:00:00;0.95;;;0.90;;
19867;SDS011;10096;51.112;6.776;2022-12-29T06:02:28;1.65;;;1.33;;
19867;SDS011;10096;51.112;6.776;2022-12-29T06:04:54;2.25;;;1.30;;
19867;SDS011;10096;51.112;6.776;2022-12-29T06:07:21;1.60;;;1.50;;
19867;SDS011;10096;51.112;6.776;2022-12-29T06:09:50;2.38;;;1.30;;
19867;SDS011;10096;51.112;6.776;2022-12-29T06:12:16;1.17;;;1.13;;
19867;SDS011;10096;51.112;6.776;2022-12-29T06:14:43;3.13;;;1.25;;
19867;SDS011;10096;51.112;6.776;2022-12-29T06:17:10;2.00;;;1.15;;
19867;SDS011;10096;51.112;6.776;2022-12-29T06:19:37;1.08;;;0.98;;
19867;SDS011;10096;51.112;6.776;2022-12-29T06:22:05;1.25;;;1.15;;
19867;SDS011;10096;51.112;6.776;2022-12-29T06:24:32;3.53;;;1.50;;
19867;SDS011;10096;51.112;6.776;2022-12-29T06:27:00;2.63;;;1.70;;
19867;SDS011;10096;51.112;6.776;2022-12-29T06:29:27;1.95;;;1.27;;
19867;SDS011;10096;51.112;6.776;2022-12-29T06:31:54;1.25;;;1.15;;
19867;SDS011;10096;51.112;6.776;2022-12-29T06:34:23;1.83;;;1.30;;
19867;SDS011;10096;51.112;6.776;2022-12-29T06:36:49;2.58;;;1.38;;
19867;SDS011;10096;51.112;6.776;2022-12-29T06:39:17;2.85;;;1.30;;
19867;SDS011;10096;51.112;6.776;2022-12-29T06:41:43;2.25;;;1.23;;
19867;SDS011;10096;51.112;6.776;2022-12-29T06:44:12;2.38;;;1.38;;
19867;SDS011;10096;51.112;6.776;2022-12-29T06:46:39;2.50;;;2.10;;
19867;SDS011;10096;51.112;6.776;2022-12-29T06:49:05;3.65;;;1.80;;
19867;SDS011;10096;51.112;6.776;2022-12-29T06:51:32;3.22;;;1.70;;
19867;SDS011;10096;51.112;6.776;2022-12-29T06:53:59;2.38;;;1.40;;
19867;SDS011;10096;51.112;6.776;2022-12-29T06:56:26;2.15;;;1.58;;
19867;SDS011;10096;51.112;6.776;2022-12-29T06:58:53;2.38;;;1.40;;
19867;SDS011;10096;51.112;6.776;2022-12-29T07:01:21;2.42;;;1.65;;
19867;SDS011;10096;51.112;6.776;2022-12-29T07:03:48;1.77;;;1.40;;
19867;SDS011;10096;51.112;6.776;2022-12-29T07:06:15;3.13;;;1.60;;
19867;SDS011;10096;51.112;6.776;2022-12-29T07:08:42;2.50;;;1.40;;
19867;SDS011;10096;51.112;6.776;2022-12-29T07:11:09;2.95;;;1.65;;
19867;SDS011;10096;51.112;6.776;2022-12-29T07:13:36;5.72;;;3.28;;
19867;SDS011;10096;51.112;6.776;2022-12-29T07:16:06;3.00;;;2.25;;
19867;SDS011;10096;51.112;6.776;2022-12-29T07:18:35;4.22;;;2.03;;
19867;SDS011;10096;51.112;6.776;2022-12-29T07:21:03;3.65;;;2.03;;
19867;SDS011;10096;51.112;6.776;2022-12-29T07:23:30;3.72;;;2.38;;
19867;SDS011;10096;51.112;6.776;2022-12-29T07:26:00;2.50;;;1.70;;
19867;SDS011;10096;51.112;6.776;2022-12-29T07:28:28;5.32;;;2.05;;
19867;SDS011;10096;51.112;6.776;2022-12-29T07:30:55;5.78;;;1.70;;
19867;SDS011;10096;51.112;6.776;2022-12-29T07:33:22;2.35;;;1.50;;
19867;SDS011;10096;51.112;6.776;2022-12-29T07:35:50;2.80;;;1.58;;
19867;SDS011;10096;51.112;6.776;2022-12-29T07:38:17;2.22;;;1.33;;
19867;SDS011;10096;51.112;6.776;2022-12-29T07:40:44;2.25;;;1.35;;
19867;SDS011;10096;51.112;6.776;2022-12-29T07:43:11;3.58;;;1.45;;
19867;SDS011;10096;51.112;6.776;2022-12-29T07:45:38;2.65;;;1.50;;
19867;SDS011;10096;51.112;6.776;2022-12-29T07:48:11;5.30;;;1.77;;
19867;SDS011;10096;51.112;6.776;2022-12-29T07:50:39;3.25;;;1.30;;
19867;SDS011;10096;51.112;6.776;2022-12-29T07:53:07;13.25;;;6.78;;
19867;SDS011;10096;51.112;6.776;2022-12-29T07:55:34;5.95;;;1.73;;
19867;SDS011;10096;51.112;6.776;2022-12-29T07:58:01;3.20;;;1.60;;
19867;SDS011;10096;51.112;6.776;2022-12-29T08:00:28;5.63;;;1.83;;
19867;SDS011;10096;51.112;6.776;2022-12-29T08:02:55;3.05;;;1.70;;
19867;SDS011;10096;51.112;6.776;2022-12-29T08:05:22;2.83;;;1.50;;
19867;SDS011;10096;51.112;6.776;2022-12-29T08:07:49;2.78;;;1.83;;
19867;SDS011;10096;51.112;6.776;2022-12-29T08:10:17;3.05;;;2.22;;
19867;SDS011;10096;51.112;6.776;2022-12-29T08:12:44;6.30;;;2.45;;
19867;SDS011;10096;51.112;6.776;2022-12-29T08:15:12;6.05;;;2.33;;
19867;SDS011;10096;51.112;6.776;2022-12-29T08:17:39;5.35;;;2.45;;
19867;SDS011;10096;51.112;6.776;2022-12-29T08:20:07;3.85;;;2.08;;
19867;SDS011;10096;51.112;6.776;2022-12-29T08:22:35;3.88;;;1.65;;
19867;SDS011;10096;51.112;6.776;2022-12-29T08:25:02;3.45;;;1.70;;
19867;SDS011;10096;51.112;6.776;2022-12-29T08:27:31;3.60;;;1.42;;
19867;SDS011;10096;51.112;6.776;2022-12-29T08:29:58;4.50;;;2.58;;
19867;SDS011;10096;51.112;6.776;2022-12-29T08:32:25;4.50;;;1.90;;
19867;SDS011;10096;51.112;6.776;2022-12-29T08:34:53;8.05;;;1.90;;
19867;SDS011;10096;51.112;6.776;2022-12-29T08:37:20;3.80;;;2.25;;
19867;SDS011;10096;51.112;6.776;2022-12-29T08:39:47;3.15;;;1.98;;
19867;SDS011;10096;51.112;6.776;2022-12-29T08:42:14;5.07;;;2.15;;
19867;SDS011;10096;51.112;6.776;2022-12-29T08:44:43;4.15;;;1.95;;
19867;SDS011;10096;51.112;6.776;2022-12-29T08:47:10;4.57;;;2.55;;
19867;SDS011;10096;51.112;6.776;2022-12-29T08:49:37;3.75;;;2.20;;
19867;SDS011;10096;51.112;6.776;2022-12-29T08:52:04;4.47;;;2.10;;
19867;SDS011;10096;51.112;6.776;2022-12-29T08:54:31;6.00;;;2.15;;
19867;SDS011;10096;51.112;6.776;2022-12-29T08:56:58;3.65;;;1.85;;
19867;SDS011;10096;51.112;6.776;2022-12-29T08:59:25;5.13;;;2.30;;
19867;SDS011;10096;51.112;6.776;2022-12-29T09:01:55;3.67;;;2.10;;
19867;SDS011;10096;51.112;6.776;2022-12-29T09:04:22;6.60;;;2.67;;
19867;SDS011;10096;51.112;6.776;2022-12-29T09:06:49;5.90;;;2.38;;
19867;SDS011;10096;51.112;6.776;2022-12-29T09:09:16;3.13;;;1.75;;
19867;SDS011;10096;51.112;6.776;2022-12-29T09:11:43;3.63;;;1.80;;
19867;SDS011;10096;51.112;6.776;2022-12-29T09:14:10;8.80;;;3.60;;
19867;SDS011;10096;51.112;6.776;2022-12-29T09:16:37;8.65;;;2.63;;
19867;SDS011;10096;51.112;6.776;2022-12-29T09:19:20;4.45;;;1.83;;
19867;SDS011;10096;51.112;6.776;2022-12-29T09:21:47;3.08;;;1.88;;
19867;SDS011;10096;51.112;6.776;2022-12-29T09:24:14;7.75;;;2.47;;
19867;SDS011;10096;51.112;6.776;2022-12-29T09:26:40;6.05;;;3.08;;
19867;SDS011;10096;51.112;6.776;2022-12-29T09:29:07;8.57;;;3.00;;
19867;SDS011;10096;51.112;6.776;2022-12-29T09:31:34;4.47;;;2.20;;
19867;SDS011;10096;51.112;6.776;2022-12-29T09:34:01;5.28;;;2.58;;
19867;SDS011;10096;51.112;6.776;2022-12-29T09:36:30;4.88;;;2.15;;
19867;SDS011;10096;51.112;6.776;2022-12-29T09:38:57;5.00;;;2.28;;
19867;SDS011;10096;51.112;6.776;2022-12-29T09:41:25;4.88;;;2.65;;
19867;SDS011;10096;51.112;6.776;2022-12-29T09:44:03;4.53;;;2.28;;
19867;SDS011;10096;51.112;6.776;2022-12-29T09:46:39;5.13;;;2.78;;
19867;SDS011;10096;51.112;6.776;2022-12-29T09:49:13;5.25;;;2.33;;
19867;SDS011;10096;51.112;6.776;2022-12-29T09:51:46;5.53;;;2.20;;
19867;SDS011;10096;51.112;6.776;2022-12-29T09:54:24;3.60;;;2.20;;
19867;SDS011;10096;51.112;6.776;2022-12-29T09:57:00;5.50;;;2.38;;
19867;SDS011;10096;51.112;6.776;2022-12-29T09:59:31;4.97;;;2.20;;
19867;SDS011;10096;51.112;6.776;2022-12-29T10:02:11;6.00;;;2.55;;
19867;SDS011;10096;51.112;6.776;2022-12-29T10:04:47;3.83;;;2.17;;
19867;SDS011;10096;51.112;6.776;2022-12-29T10:07:17;6.60;;;2.40;;
19867;SDS011;10096;51.112;6.776;2022-12-29T10:09:53;6.90;;;2.53;;
19867;SDS011;10096;51.112;6.776;2022-12-29T10:12:29;9.43;;;3.50;;
19867;SDS011;10096;51.112;6.776;2022-12-29T10:15:10;5.00;;;2.13;;
19867;SDS011;10096;51.112;6.776;2022-12-29T10:17:46;5.53;;;2.13;;
19867;SDS011;10096;51.112;6.776;2022-12-29T10:20:27;6.47;;;2.17;;
19867;SDS011;10096;51.112;6.776;2022-12-29T10:25:53;5.35;;;2.63;;
19867;SDS011;10096;51.112;6.776;2022-12-29T10:28:22;5.05;;;2.00;;
19867;SDS011;10096;51.112;6.776;2022-12-29T10:30:51;6.45;;;2.40;;
19867;SDS011;10096;51.112;6.776;2022-12-29T10:33:21;6.82;;;2.88;;
19867;SDS011;10096;51.112;6.776;2022-12-29T10:35:50;5.10;;;2.45;;
19867;SDS011;10096;51.112;6.776;2022-12-29T10:38:20;5.15;;;2.25;;
19867;SDS011;10096;51.112;6.776;2022-12-29T10:40:54;4.88;;;2.05;;
19867;SDS011;10096;51.112;6.776;2022-12-29T10:43:27;8.07;;;3.30;;
19867;SDS011;10096;51.112;6.776;2022-12-29T10:45:56;5.15;;;1.85;;
19867;SDS011;10096;51.112;6.776;2022-12-29T10:48:26;6.82;;;2.53;;
19867;SDS011;10096;51.112;6.776;2022-12-29T10:50:57;5.63;;;2.28;;
19867;SDS011;10096;51.112;6.776;2022-12-29T10:53:38;3.97;;;2.20;;
19867;SDS011;10096;51.112;6.776;2022-12-29T10:56:13;7.65;;;2.70;;
19867;SDS011;10096;51.112;6.776;2022-12-29T10:58:47;6.30;;;2.20;;
19867;SDS011;10096;51.112;6.776;2022-12-29T11:01:16;4.82;;;2.67;;
19867;SDS011;10096;51.112;6.776;2022-12-29T11:03:50;5.40;;;1.85;;
19867;SDS011;10096;51.112;6.776;2022-12-29T11:06:26;7.30;;;2.72;;
19867;SDS011;10096;51.112;6.776;2022-12-29T11:09:02;4.35;;;2.47;;
19867;SDS011;10096;51.112;6.776;2022-12-29T11:12:01;6.60;;;2.25;;
19867;SDS011;10096;51.112;6.776;2022-12-29T11:14:45;3.83;;;2.15;;
19867;SDS011;10096;51.112;6.776;2022-12-29T11:17:15;4.15;;;2.05;;
19867;SDS011;10096;51.112;6.776;2022-12-29T11:19:44;7.88;;;2.88;;
19867;SDS011;10096;51.112;6.776;2022-12-29T11:22:14;5.10;;;2.15;;
19867;SDS011;10096;51.112;6.776;2022-12-29T11:24:49;3.58;;;1.90;;
19867;SDS011;10096;51.112;6.776;2022-12-29T11:27:21;4.88;;;1.98;;
19867;SDS011;10096;51.112;6.776;2022-12-29T11:29:50;4.25;;;2.10;;
19867;SDS011;10096;51.112;6.776;2022-12-29T11:32:18;8.55;;;2.65;;
19867;SDS011;10096;51.112;6.776;2022-12-29T11:34:47;5.45;;;2.20;;
19867;SDS011;10096;51.112;6.776;2022-12-29T11:37:17;6.80;;;3.08;;
19867;SDS011;10096;51.112;6.776;2022-12-29T11:39:48;9.80;;;4.22;;
19867;SDS011;10096;51.112;6.776;2022-12-29T11:42:22;10.10;;;2.45;;
19867;SDS011;10096;51.112;6.776;2022-12-29T11:44:55;5.20;;;2.58;;
19867;SDS011;10096;51.112;6.776;2022-12-29T11:47:24;8.20;;;3.45;;
19867;SDS011;10096;51.112;6.776;2022-12-29T11:49:55;8.75;;;3.40;;
19867;SDS011;10096;51.112;6.776;2022-12-29T11:52:25;4.68;;;2.10;;
19867;SDS011;10096;51.112;6.776;2022-12-29T11:54:55;4.25;;;2.85;;
19867;SDS011;10096;51.112;6.776;2022-12-29T11:57:23;5.75;;;2.60;;
19867;SDS011;10096;51.112;6.776;2022-12-29T11:59:51;7.88;;;2.78;;
19867;SDS011;10096;51.112;6.776;2022-12-29T12:05:21;7.13;;;2.30;;
19867;SDS011;10096;51.112;6.776;2022-12-29T12:07:54;6.57;;;2.35;;
19867;SDS011;10096;51.112;6.776;2022-12-29T12:10:29;4.95;;;2.17;;
19867;SDS011;10096;51.112;6.776;2022-12-29T12:13:03;3.83;;;1.85;;
19867;SDS011;10096;51.112;6.776;2022-12-29T12:15:39;3.58;;;1.85;;
19867;SDS011;10096;51.112;6.776;2022-12-29T12:18:11;4.22;;;1.98;;
19867;SDS011;10096;51.112;6.776;2022-12-29T12:20:45;3.78;;;2.25;;
19867;SDS011;10096;51.112;6.776;2022-12-29T12:23:22;6.32;;;2.35;;
19867;SDS011;10096;51.112;6.776;2022-12-29T12:26:11;6.88;;;2.28;;
19867;SDS011;10096;51.112;6.776;2022-12-29T12:28:44;3.33;;;1.70;;
19867;SDS011;10096;51.112;6.776;2022-12-29T12:31:18;6.13;;;1.90;;
19867;SDS011;10096;51.112;6.776;2022-12-29T12:33:53;6.65;;;2.28;;
19867;SDS011;10096;51.112;6.776;2022-12-29T12:39:17;4.40;;;2.38;;
19867;SDS011;10096;51.112;6.776;2022-12-29T12:41:54;8.25;;;2.33;;
19867;SDS011;10096;51.112;6.776;2022-12-29T12:44:33;5.18;;;3.65;;
19867;SDS011;10096;51.112;6.776;2022-12-29T12:47:27;3.83;;;1.92;;
19867;SDS011;10096;51.112;6.776;2022-12-29T12:50:14;4.10;;;3.63;;
19867;SDS011;10096;51.112;6.776;2022-12-29T12:52:59;5.57;;;2.20;;
19867;SDS011;10096;51.112;6.776;2022-12-29T12:55:49;5.20;;;2.10;;
19867;SDS011;10096;51.112;6.776;2022-12-29T12:58:27;4.03;;;2.05;;
19867;SDS011;10096;51.112;6.776;2022-12-29T13:01:06;5.85;;;2.30;;
19867;SDS011;10096;51.112;6.776;2022-12-29T13:03:45;3.90;;;1.85;;
19867;SDS011;10096;51.112;6.776;2022-12-29T13:06:23;4.13;;;1.90;;
19867;SDS011;10096;51.112;6.776;2022-12-29T13:09:05;4.75;;;2.15;;
19867;SDS011;10096;51.112;6.776;2022-12-29T13:11:46;2.72;;;2.08;;
19867;SDS011;10096;51.112;6.776;2022-12-29T13:14:27;3.97;;;1.88;;
19867;SDS011;10096;51.112;6.776;2022-12-29T13:17:06;6.28;;;3.03;;
19867;SDS011;10096;51.112;6.776;2022-12-29T13:19:41;4.22;;;2.20;;
19867;SDS011;10096;51.112;6.776;2022-12-29T13:22:16;3.05;;;2.25;;
19867;SDS011;10096;51.112;6.776;2022-12-29T13:24:50;3.78;;;1.92;;
19867;SDS011;10096;51.112;6.776;2022-12-29T13:27:27;3.42;;;2.20;;
19867;SDS011;10096;51.112;6.776;2022-12-29T13:30:03;5.57;;;2.58;;
19867;SDS011;10096;51.112;6.776;2022-12-29T13:32:41;4.15;;;2.03;;
19867;SDS011;10096;51.112;6.776;2022-12-29T13:35:21;3.50;;;2.22;;
19867;SDS011;10096;51.112;6.776;2022-12-29T13:37:59;4.72;;;1.73;;
19867;SDS011;10096;51.112;6.776;2022-12-29T13:40:31;6.30;;;2.60;;
19867;SDS011;10096;51.112;6.776;2022-12-29T13:43:01;3.85;;;1.65;;
19867;SDS011;10096;51.112;6.776;2022-12-29T13:45:31;3.63;;;1.98;;
19867;SDS011;10096;51.112;6.776;2022-12-29T13:48:02;3.28;;;1.55;;
19867;SDS011;10096;51.112;6.776;2022-12-29T13:50:34;4.18;;;1.80;;
19867;SDS011;10096;51.112;6.776;2022-12-29T13:54:14;4.85;;;2.55;;
19867;SDS011;10096;51.112;6.776;2022-12-29T13:56:12;5.65;;;1.98;;
19867;SDS011;10096;51.112;6.776;2022-12-29T13:58:47;4.35;;;2.13;;
19867;SDS011;10096;51.112;6.776;2022-12-29T14:01:22;2.50;;;1.92;;
19867;SDS011;10096;51.112;6.776;2022-12-29T14:03:55;5.97;;;2.30;;
19867;SDS011;10096;51.112;6.776;2022-12-29T14:06:23;3.42;;;1.90;;
19867;SDS011;10096;51.112;6.776;2022-12-29T14:08:54;4.25;;;2.00;;
19867;SDS011;10096;51.112;6.776;2022-12-29T14:11:28;4.85;;;2.25;;
19867;SDS011;10096;51.112;6.776;2022-12-29T14:13:57;2.13;;;1.58;;
19867;SDS011;10096;51.112;6.776;2022-12-29T14:16:30;5.93;;;1.73;;
19867;SDS011;10096;51.112;6.776;2022-12-29T14:19:04;3.03;;;1.80;;
19867;SDS011;10096;51.112;6.776;2022-12-29T14:21:37;5.13;;;2.38;;
19867;SDS011;10096;51.112;6.776;2022-12-29T14:24:26;4.70;;;1.70;;
19867;SDS011;10096;51.112;6.776;2022-12-29T14:30:06;2.83;;;1.65;;
19867;SDS011;10096;51.112;6.776;2022-12-29T14:33:13;4.28;;;1.73;;
19867;SDS011;10096;51.112;6.776;2022-12-29T14:35:41;5.25;;;1.88;;
19867;SDS011;10096;51.112;6.776;2022-12-29T14:38:18;4.15;;;1.92;;
19867;SDS011;10096;51.112;6.776;2022-12-29T14:40:50;4.78;;;2.10;;
19867;SDS011;10096;51.112;6.776;2022-12-29T14:43:20;7.03;;;2.28;;
19867;SDS011;10096;51.112;6.776;2022-12-29T14:45:54;3.45;;;1.92;;
19867;SDS011;10096;51.112;6.776;2022-12-29T14:48:32;3.88;;;2.35;;
19867;SDS011;10096;51.112;6.776;2022-12-29T14:51:18;6.13;;;2.20;;
19867;SDS011;10096;51.112;6.776;2022-12-29T14:53:48;3.95;;;2.13;;
19867;SDS011;10096;51.112;6.776;2022-12-29T14:56:17;2.90;;;1.52;;
19867;SDS011;10096;51.112;6.776;2022-12-29T14:58:47;6.28;;;1.95;;
19867;SDS011;10096;51.112;6.776;2022-12-29T15:01:19;3.47;;;1.90;;
19867;SDS011;10096;51.112;6.776;2022-12-29T15:03:56;9.93;;;2.65;;
19867;SDS011;10096;51.112;6.776;2022-12-29T15:06:30;7.30;;;2.30;;
19867;SDS011;10096;51.112;6.776;2022-12-29T15:09:00;4.72;;;1.70;;
19867;SDS011;10096;51.112;6.776;2022-12-29T15:11:40;5.53;;;1.90;;
19867;SDS011;10096;51.112;6.776;2022-12-29T15:14:28;3.08;;;1.88;;
19867;SDS011;10096;51.112;6.776;2022-12-29T15:16:58;5.35;;;2.33;;
19867;SDS011;10096;51.112;6.776;2022-12-29T15:19:27;6.20;;;3.13;;
19867;SDS011;10096;51.112;6.776;2022-12-29T15:21:55;4.60;;;1.67;;
19867;SDS011;10096;51.112;6.776;2022-12-29T15:24:25;8.55;;;3.10;;
19867;SDS011;10096;51.112;6.776;2022-12-29T15:26:53;5.22;;;2.63;;
19867;SDS011;10096;51.112;6.776;2022-12-29T15:29:31;3.25;;;2.40;;